CheckWX is a tool to help pilots better visualize weather data.  It is not intended as a substitute for an official pre-flight weather briefing.

19:39:58 UTC

KEKO METAR
Elko Regional Airport
Elko, Nevada, USA
Current

35 mins ago

KEKO 261905Z AUTO 19023G31KT 10SM FEW060 SCT070 BKN090 14/04 A2972 RMK AO2 PK WND 19031/1904 LTG DSNT NW TSE1859 T01390044 $
Observed
May-26 @ 19:05 UTC
Wind
  • 190° at 23 KTS
  • Gusting to 31 KTS
Visibility
10 SM
Flight Rules
VFR
Cloud Levels
  • Few at 6,000' AGL
  • Scattered at 7,000' AGL
  • Broken at 9,000' AGL
Temperature
14°C / 57°F
Dewpoint
C / 39°F
Humidity
51%
Altimeter
29.72" Hg
Pressure
1006.42 hPa
Previous

44 mins ago

KEKO 261856Z AUTO 22012G17KT 10SM TS FEW060 BKN080 BKN090 15/05 A2970 RMK AO2 PK WND 22028/1819 WSHFT 1810 LTG DSNT NW RAB22E40 TSB44 SLP027 P0001 T01500050 $
Observed
May-26 @ 18:56 UTC
Wind
  • 220° at 12 KTS
  • Gusting to 17 KTS
Visibility
10 SM
Flight Rules
VFR
Conditions
Thunderstorm
Cloud Levels
  • Few at 6,000' AGL
  • Broken at 8,000' AGL
  • Broken at 9,000' AGL
Temperature
15°C / 59°F
Dewpoint
C / 41°F
Humidity
51%
Altimeter
29.7" Hg
Pressure
1005.72 hPa
Current Rain
0.01"
Previous

1 hour ago

KEKO 261838Z AUTO 20006KT 10SM -RA BKN060 OVC075 11/05 A2971 RMK AO2 PK WND 22028/1819 WSHFT 1810 RAB22 P0001 T01060050 $
Observed
May-26 @ 18:38 UTC
Wind
  • 200° at 6 KTS
Visibility
10 SM
Flight Rules
VFR
Conditions
Light Rain
Cloud Levels
  • Broken at 6,000' AGL
  • Overcast at 7,500' AGL
Temperature
11°C / 52°F
Dewpoint
C / 41°F
Humidity
67%
Altimeter
29.71" Hg
Pressure
1006.12 hPa
Current Rain
0.01"